createdAt,value
2018-03-01T00:00:12.690Z,99.10
2018-03-01T00:02:15.370Z,99.20
2018-03-01T00:04:18.083Z,99.20
2018-03-01T00:06:20.739Z,99.10
2018-03-01T00:08:23.427Z,99.20
2018-03-01T00:10:26.079Z,99.30
2018-03-01T00:12:28.769Z,99.10
2018-03-01T00:14:31.425Z,98.80
2018-03-01T00:16:34.090Z,98.80
2018-03-01T00:18:36.785Z,99.10
2018-03-01T00:20:39.444Z,99.00
2018-03-01T00:22:42.135Z,99.10
2018-03-01T00:24:44.812Z,99.00
2018-03-01T00:34:05.452Z,99.00
2018-03-01T00:36:08.160Z,99.20
2018-03-01T00:38:10.856Z,99.10
2018-03-01T00:40:13.538Z,98.90
2018-03-01T00:42:16.206Z,99.10
2018-03-01T00:44:18.898Z,98.90
2018-03-01T00:46:22.325Z,98.70
2018-03-01T00:48:24.998Z,98.70
2018-03-01T00:50:27.886Z,98.80
2018-03-01T00:52:30.545Z,98.70
2018-03-01T00:54:33.250Z,98.50
2018-03-01T00:56:35.896Z,98.80
2018-03-01T00:58:38.553Z,98.70
2018-03-01T01:00:42.000Z,98.60
2018-03-01T01:02:44.691Z,98.50
2018-03-01T01:04:47.706Z,98.60
2018-03-01T01:06:51.151Z,98.40
2018-03-01T01:08:53.823Z,98.40
2018-03-01T01:10:56.494Z,98.60
2018-03-01T01:12:59.177Z,98.60
2018-03-01T01:15:01.851Z,98.40
2018-03-01T01:17:04.531Z,98.50
2018-03-01T01:19:07.202Z,98.50
2018-03-01T01:21:09.892Z,98.60
2018-03-01T01:23:12.555Z,98.40
2018-03-01T01:25:15.273Z,98.40
2018-03-01T01:27:17.998Z,98.60
2018-03-01T01:29:20.668Z,98.60
2018-03-01T01:31:23.359Z,98.70
2018-03-01T01:33:26.138Z,98.50
2018-03-01T01:35:28.805Z,98.60
2018-03-01T01:37:31.474Z,98.50
2018-03-01T01:39:34.152Z,98.60
2018-03-01T01:41:36.832Z,98.70
2018-03-01T01:43:39.540Z,98.60
2018-03-01T01:45:42.235Z,98.80
2018-03-01T01:47:44.904Z,98.60
2018-03-01T01:49:47.704Z,98.60
2018-03-01T01:51:51.166Z,98.80
2018-03-01T01:53:53.835Z,98.80
2018-03-01T01:55:56.517Z,98.80
2018-03-01T01:57:59.193Z,98.70
2018-03-01T02:00:02.625Z,98.70
2018-03-01T02:02:06.169Z,98.70
2018-03-01T02:04:08.923Z,98.70
2018-03-01T02:06:11.660Z,98.80
2018-03-01T02:08:14.350Z,98.90
2018-03-01T02:10:17.920Z,98.90
2018-03-01T02:12:20.615Z,98.90
2018-03-01T02:14:23.365Z,99.00
2018-03-01T02:16:26.016Z,99.10
2018-03-01T02:18:28.775Z,99.10
2018-03-01T02:20:31.461Z,99.20
2018-03-01T02:22:34.188Z,99.30
2018-03-01T02:24:36.879Z,99.20
2018-03-01T02:26:39.527Z,99.30
2018-03-01T02:28:42.242Z,99.40
2018-03-01T02:30:45.772Z,99.50
2018-03-01T02:32:48.582Z,99.50
2018-03-01T02:34:51.285Z,99.40
2018-03-01T02:36:54.711Z,99.80
2018-03-01T02:38:57.434Z,99.60
2018-03-01T02:41:00.145Z,99.50
2018-03-01T02:43:03.647Z,99.70
2018-03-01T02:45:06.328Z,99.70
2018-03-01T02:47:09.235Z,99.60
2018-03-01T02:49:12.009Z,99.50
2018-03-01T02:51:15.401Z,99.60
2018-03-01T02:53:18.076Z,99.60
2018-03-01T02:55:20.749Z,99.50
2018-03-01T02:57:23.431Z,99.70
2018-03-01T02:59:26.123Z,99.60
2018-03-01T03:01:28.853Z,99.70
2018-03-01T03:03:32.295Z,99.70
2018-03-01T03:05:34.968Z,99.70
2018-03-01T03:07:37.640Z,99.90
2018-03-01T03:09:40.320Z,99.90
2018-03-01T03:11:42.995Z,99.90
2018-03-01T03:13:45.678Z,99.90
2018-03-01T03:15:48.626Z,99.90
2018-03-01T03:17:51.298Z,99.90
2018-03-01T03:19:53.979Z,99.90
2018-03-01T03:21:56.983Z,99.90
2018-03-01T03:23:59.651Z,99.90
2018-03-01T03:26:02.372Z,99.90
2018-03-01T03:28:05.075Z,99.90
2018-03-01T03:30:07.759Z,99.90
2018-03-01T03:32:10.554Z,99.90
2018-03-01T03:34:13.257Z,99.90
2018-03-01T03:36:15.950Z,99.90
2018-03-01T03:38:18.634Z,99.90
2018-03-01T03:40:21.351Z,99.90
2018-03-01T03:42:24.039Z,99.90
2018-03-01T03:44:26.719Z,99.90
2018-03-01T03:46:29.477Z,99.90
2018-03-01T03:48:32.132Z,99.80
2018-03-01T03:50:35.574Z,99.90
2018-03-01T03:52:38.228Z,99.80
2018-03-01T03:54:40.884Z,99.80
2018-03-01T03:56:44.343Z,99.90
2018-03-01T03:58:46.997Z,99.90
2018-03-01T04:00:51.029Z,99.80
2018-03-01T04:02:53.680Z,99.90
2018-03-01T04:04:56.395Z,99.60
2018-03-01T04:06:59.660Z,99.70
2018-03-01T04:09:02.428Z,99.70
2018-03-01T04:11:05.107Z,99.70
2018-03-01T04:13:07.827Z,99.70
2018-03-01T04:15:11.288Z,99.70
2018-03-01T04:17:13.995Z,99.90
2018-03-01T04:19:16.645Z,99.50
2018-03-01T04:21:19.323Z,99.80
2018-03-01T04:23:22.005Z,99.80
2018-03-01T04:25:24.739Z,99.60
2018-03-01T04:27:27.427Z,99.60
2018-03-01T04:29:30.091Z,99.50
2018-03-01T04:31:32.744Z,99.40
2018-03-01T04:33:36.191Z,99.40
2018-03-01T04:35:38.855Z,99.40
2018-03-01T04:37:41.542Z,99.40
2018-03-01T04:39:44.333Z,99.50
2018-03-01T04:41:46.999Z,99.10
2018-03-01T04:43:49.719Z,99.00
2018-03-01T04:45:53.152Z,98.70
2018-03-01T04:47:56.093Z,98.70
2018-03-01T04:49:59.533Z,98.30
2018-03-01T04:52:02.190Z,98.30
2018-03-01T04:54:04.912Z,98.30
2018-03-01T04:56:07.557Z,98.40
2018-03-01T04:58:10.216Z,98.30
2018-03-01T05:00:12.949Z,98.10
2018-03-01T05:02:15.605Z,98.60
2018-03-01T05:04:18.273Z,98.30
2018-03-01T05:06:20.976Z,98.50
2018-03-01T05:08:23.688Z,98.60
2018-03-01T05:10:26.384Z,98.20
2018-03-01T05:12:29.131Z,98.00
2018-03-01T05:14:31.879Z,98.10
2018-03-01T05:16:34.564Z,98.10
2018-03-01T05:18:37.217Z,98.10
2018-03-01T05:20:39.913Z,98.10
2018-03-01T05:22:42.578Z,98.30
2018-03-01T05:24:45.259Z,98.20
2018-03-01T05:26:47.905Z,98.40
2018-03-01T05:28:50.557Z,98.60
2018-03-01T05:30:53.232Z,98.60
2018-03-01T05:32:55.910Z,98.90
2018-03-01T05:34:58.828Z,98.90
2018-03-01T05:37:01.504Z,99.00
2018-03-01T05:39:04.205Z,99.10
2018-03-01T05:41:06.874Z,99.20
2018-03-01T05:43:09.570Z,99.00
2018-03-01T05:45:14.095Z,99.10
2018-03-01T05:47:16.938Z,99.10
2018-03-01T05:49:19.611Z,99.10
2018-03-01T05:51:22.285Z,99.10
2018-03-01T05:53:24.947Z,99.10
2018-03-01T05:55:27.709Z,99.30
2018-03-01T05:57:30.467Z,99.00
2018-03-01T05:59:33.898Z,98.90
2018-03-01T06:01:36.590Z,98.90
2018-03-01T06:03:40.225Z,99.00
2018-03-01T06:05:43.733Z,98.80
2018-03-01T06:07:46.389Z,98.80
2018-03-01T06:09:49.034Z,98.80
2018-03-01T06:11:51.718Z,98.60
2018-03-01T06:13:54.396Z,98.70
2018-03-01T06:15:57.040Z,98.80
2018-03-01T06:17:59.735Z,98.60
2018-03-01T06:20:03.154Z,98.60
2018-03-01T06:22:05.862Z,98.60
2018-03-01T06:24:08.603Z,98.50
2018-03-01T06:26:11.375Z,98.60
2018-03-01T06:28:14.075Z,98.50
2018-03-01T06:30:17.561Z,98.80
2018-03-01T06:32:20.237Z,98.50
2018-03-01T06:34:23.009Z,98.50
2018-03-01T06:36:25.699Z,98.50
2018-03-01T06:38:29.161Z,98.70
2018-03-01T06:40:32.608Z,98.40
2018-03-01T06:42:36.084Z,98.40
2018-03-01T06:44:38.756Z,98.40
2018-03-01T06:46:41.406Z,98.40
2018-03-01T06:48:44.067Z,98.30
2018-03-01T06:50:46.733Z,98.20
2018-03-01T06:52:49.462Z,98.10
2018-03-01T06:54:52.252Z,98.30
2018-03-01T06:56:55.684Z,98.00
2018-03-01T06:58:58.372Z,98.00
2018-03-01T07:01:01.009Z,97.90
2018-03-01T07:03:03.663Z,97.80
2018-03-01T07:05:07.568Z,97.40
2018-03-01T07:07:10.362Z,97.20
2018-03-01T07:09:13.818Z,97.20
2018-03-01T07:11:16.571Z,97.20
2018-03-01T07:13:19.233Z,97.10
2018-03-01T07:15:21.915Z,95.70
2018-03-01T07:17:24.590Z,95.10
2018-03-01T07:19:27.289Z,94.80
2018-03-01T07:21:29.946Z,94.50
2018-03-01T07:23:32.846Z,94.60
2018-03-01T07:25:35.630Z,95.30
2018-03-01T07:27:38.477Z,95.50
2018-03-01T07:29:42.084Z,95.80
2018-03-01T07:31:44.733Z,95.80
2018-03-01T07:33:48.215Z,95.50
2018-03-01T07:35:51.671Z,95.30
2018-03-01T07:37:54.317Z,95.30
2018-03-01T07:39:56.981Z,95.10
2018-03-01T07:41:59.632Z,94.90
2018-03-01T07:44:03.080Z,94.50
2018-03-01T07:46:05.771Z,94.50
2018-03-01T07:48:08.453Z,94.00
2018-03-01T07:50:11.307Z,93.40
2018-03-01T07:52:13.998Z,92.50
2018-03-01T07:54:16.691Z,92.60
2018-03-01T07:56:19.342Z,93.00
2018-03-01T07:58:22.024Z,93.30
2018-03-01T08:00:24.711Z,92.30
2018-03-01T08:02:27.364Z,92.40
2018-03-01T08:04:30.055Z,92.60
2018-03-01T08:06:32.707Z,92.30
2018-03-01T08:08:35.359Z,92.40
2018-03-01T08:10:38.051Z,91.80
2018-03-01T08:12:40.715Z,90.70
2018-03-01T08:14:43.393Z,91.00
2018-03-01T08:16:46.097Z,91.30
2018-03-01T08:18:48.736Z,91.00
2018-03-01T08:20:52.306Z,90.40
2018-03-01T08:22:54.967Z,90.40
2018-03-01T08:24:57.624Z,90.20
2018-03-01T08:27:00.325Z,90.00
2018-03-01T08:29:02.991Z,89.00
2018-03-01T08:31:05.683Z,88.90
2018-03-01T08:33:08.368Z,88.90
2018-03-01T08:35:11.020Z,85.40
2018-03-01T08:37:13.690Z,74.40
2018-03-01T08:39:16.345Z,61.60
2018-03-01T08:41:19.021Z,61.50
2018-03-01T08:43:21.679Z,59.20
2018-03-01T08:45:24.334Z,62.20
2018-03-01T08:47:27.789Z,60.20
2018-03-01T08:49:30.437Z,60.10
2018-03-01T08:51:33.138Z,58.30
2018-03-01T08:53:35.823Z,57.80
2018-03-01T08:55:38.507Z,61.00
2018-03-01T08:57:41.185Z,58.00
2018-03-01T08:59:43.851Z,59.20
2018-03-01T09:01:46.507Z,61.60
2018-03-01T09:03:50.051Z,62.90
2018-03-01T09:05:52.740Z,63.50
2018-03-01T09:07:56.173Z,58.70
2018-03-01T09:09:58.826Z,58.70
2018-03-01T09:12:01.487Z,60.00
2018-03-01T09:14:04.181Z,59.30
2018-03-01T09:16:06.833Z,59.40
2018-03-01T09:18:10.269Z,59.20
2018-03-01T09:20:13.141Z,59.20
2018-03-01T09:22:15.796Z,59.90
2018-03-01T09:24:18.471Z,60.00
2018-03-01T09:26:21.129Z,61.70
2018-03-01T09:28:24.584Z,63.30
2018-03-01T09:30:27.319Z,63.10
2018-03-01T09:32:29.993Z,62.90
2018-03-01T09:34:33.436Z,62.90
2018-03-01T09:36:36.861Z,62.70
2018-03-01T09:38:40.303Z,61.70
2018-03-01T09:40:42.971Z,61.60
2018-03-01T09:42:45.660Z,61.80
2018-03-01T09:44:48.348Z,58.80
2018-03-01T09:46:51.027Z,57.30
2018-03-01T09:48:53.744Z,56.90
2018-03-01T09:50:57.163Z,53.70
2018-03-01T09:52:59.920Z,53.70
2018-03-01T09:55:03.381Z,52.10
2018-03-01T09:57:06.041Z,52.10
2018-03-01T09:59:08.721Z,50.20
2018-03-01T10:01:11.413Z,48.90
2018-03-01T10:03:14.087Z,48.90
2018-03-01T10:05:16.763Z,48.70
2018-03-01T10:07:19.436Z,47.80
2018-03-01T10:09:22.111Z,47.40
2018-03-01T10:11:24.780Z,46.10
2018-03-01T10:13:27.440Z,45.90
2018-03-01T10:15:30.125Z,47.20
2018-03-01T10:17:32.822Z,45.90
2018-03-01T10:19:35.504Z,45.90
2018-03-01T10:21:38.176Z,46.10
2018-03-01T10:23:40.826Z,44.80
2018-03-01T10:25:43.545Z,45.70
2018-03-01T10:27:46.972Z,46.10
2018-03-01T10:29:49.656Z,46.10
2018-03-01T10:31:52.420Z,46.80
2018-03-01T10:33:55.152Z,45.70
2018-03-01T10:35:57.849Z,46.60
2018-03-01T10:38:01.280Z,49.30
2018-03-01T10:40:04.003Z,49.30
2018-03-01T10:42:06.666Z,49.50
2018-03-01T10:44:09.313Z,50.20
2018-03-01T10:46:12.053Z,50.30
2018-03-01T10:48:15.489Z,50.70
2018-03-01T10:50:18.145Z,50.60
2018-03-01T10:52:20.822Z,51.10
2018-03-01T10:54:23.573Z,50.60
2018-03-01T10:56:27.029Z,50.30
2018-03-01T10:58:29.689Z,50.20
2018-03-01T11:00:38.102Z,50.20
2018-03-01T11:02:40.750Z,50.80
2018-03-01T11:04:43.428Z,49.80
2018-03-01T11:06:46.109Z,50.80
2018-03-01T11:08:48.771Z,50.70
2018-03-01T11:10:52.293Z,50.80
2018-03-01T11:12:55.189Z,50.80
2018-03-01T11:14:57.868Z,50.20
2018-03-01T11:17:00.548Z,51.00
2018-03-01T11:19:04.946Z,50.40
2018-03-01T11:21:07.654Z,50.80
2018-03-01T11:23:10.359Z,50.20
2018-03-01T11:25:13.903Z,50.50
2018-03-01T11:27:16.592Z,50.50
2018-03-01T11:29:19.263Z,50.50
2018-03-01T11:31:21.919Z,50.30
2018-03-01T11:33:24.593Z,50.30
2018-03-01T11:35:33.512Z,50.00
2018-03-01T11:37:36.195Z,49.50
2018-03-01T11:39:40.506Z,49.60
2018-03-01T11:41:43.177Z,49.90
2018-03-01T11:43:45.884Z,49.70
2018-03-01T11:45:48.549Z,49.20
2018-03-01T11:47:51.237Z,49.50
2018-03-01T11:49:53.924Z,49.40
2018-03-01T11:51:56.591Z,48.70
2018-03-01T11:53:59.248Z,49.00
2018-03-01T11:56:01.925Z,49.50
2018-03-01T11:58:04.577Z,49.20
2018-03-01T12:00:07.278Z,48.30
2018-03-01T12:02:09.925Z,48.80
2018-03-01T12:04:12.681Z,48.60
2018-03-01T12:06:15.344Z,48.50
2018-03-01T12:08:18.020Z,48.40
2018-03-01T12:10:20.689Z,48.50
2018-03-01T12:12:23.346Z,47.90
2018-03-01T12:14:26.007Z,47.80
2018-03-01T12:16:28.700Z,47.80
2018-03-01T12:18:31.369Z,47.40
2018-03-01T12:20:34.091Z,48.20
2018-03-01T12:22:37.517Z,47.90
2018-03-01T12:24:40.220Z,47.90
2018-03-01T12:26:42.934Z,47.80
2018-03-01T12:28:45.576Z,48.30
2018-03-01T12:30:48.245Z,47.60
2018-03-01T12:32:51.009Z,47.80
2018-03-01T12:34:53.681Z,47.70
2018-03-01T12:36:56.358Z,47.70
2018-03-01T12:38:59.019Z,47.80
2018-03-01T12:41:01.717Z,47.60
2018-03-01T12:43:04.389Z,47.80
2018-03-01T12:45:07.067Z,47.70
2018-03-01T12:47:09.738Z,47.20
2018-03-01T12:49:12.397Z,47.60
2018-03-01T12:51:15.124Z,47.20
2018-03-01T12:53:17.903Z,46.90
2018-03-01T12:55:20.558Z,46.60
2018-03-01T12:57:23.242Z,46.60
2018-03-01T12:59:25.909Z,46.30
2018-03-01T13:01:28.588Z,46.50
2018-03-01T13:03:31.267Z,46.30
2018-03-01T13:05:33.911Z,46.60
2018-03-01T13:07:37.181Z,46.40
2018-03-01T13:09:40.823Z,46.30
2018-03-01T13:11:43.505Z,46.30
2018-03-01T13:13:46.173Z,46.30
2018-03-01T13:15:48.821Z,45.70
2018-03-01T13:17:52.265Z,45.80
2018-03-01T13:19:54.935Z,45.80
2018-03-01T13:21:57.639Z,45.80
2018-03-01T13:24:00.296Z,45.90
2018-03-01T13:26:02.960Z,46.40
2018-03-01T13:28:05.643Z,45.90
2018-03-01T13:30:10.009Z,45.60
2018-03-01T13:32:24.307Z,45.60
2018-03-01T13:37:09.764Z,45.50
2018-03-01T13:39:12.469Z,45.10
2018-03-01T13:41:15.159Z,45.70
2018-03-01T13:43:21.413Z,45.50
2018-03-01T13:45:24.093Z,45.80
2018-03-01T13:47:30.471Z,45.60
2018-03-01T13:49:33.211Z,45.70
2018-03-01T13:51:35.976Z,45.70
2018-03-01T13:53:38.658Z,45.50
2018-03-01T13:55:41.348Z,45.50
2018-03-01T13:57:44.015Z,45.50
2018-03-01T13:59:46.692Z,45.60
2018-03-01T14:01:49.362Z,45.80
2018-03-01T14:03:52.088Z,45.90
2018-03-01T14:08:40.449Z,45.70
2018-03-01T14:10:43.127Z,46.20
2018-03-01T14:12:51.555Z,45.90
2018-03-01T14:14:55.048Z,45.50
2018-03-01T14:17:02.244Z,45.70
2018-03-01T14:19:19.434Z,45.70
2018-03-01T14:21:30.487Z,45.50
2018-03-01T14:23:37.309Z,45.80
2018-03-01T14:25:40.094Z,45.60
2018-03-01T14:27:48.947Z,46.00
2018-03-01T14:29:52.104Z,45.90
2018-03-01T14:31:54.865Z,46.00
2018-03-01T14:33:58.326Z,45.90
2018-03-01T14:36:01.708Z,45.80
2018-03-01T14:38:05.182Z,46.00
2018-03-01T14:40:07.845Z,46.00
2018-03-01T14:42:11.283Z,46.30
2018-03-01T14:44:13.977Z,46.40
2018-03-01T14:46:16.636Z,46.20
2018-03-01T14:48:19.304Z,46.30
2018-03-01T14:50:21.945Z,46.10
2018-03-01T14:52:24.639Z,45.60
2018-03-01T14:54:27.289Z,46.00
2018-03-01T14:56:30.082Z,45.90
2018-03-01T14:58:32.746Z,46.00
2018-03-01T15:00:35.616Z,45.80
2018-03-01T15:02:38.477Z,46.00
2018-03-01T15:04:41.886Z,46.20
2018-03-01T15:06:45.297Z,45.70
2018-03-01T15:08:47.965Z,45.70
2018-03-01T15:10:50.651Z,45.90
2018-03-01T15:12:53.387Z,46.30
2018-03-01T15:14:56.051Z,46.10
2018-03-01T15:16:58.712Z,46.30
2018-03-01T15:19:01.561Z,46.10
2018-03-01T15:21:04.221Z,46.30
2018-03-01T15:23:06.902Z,46.30
2018-03-01T15:25:09.553Z,46.40
2018-03-01T15:27:13.086Z,46.60
2018-03-01T15:29:15.863Z,46.50
2018-03-01T15:31:18.557Z,46.40
2018-03-01T15:33:21.224Z,46.10
2018-03-01T15:35:24.606Z,46.40
2018-03-01T15:37:27.380Z,46.10
2018-03-01T15:39:30.118Z,45.90
2018-03-01T15:41:32.752Z,45.90
2018-03-01T15:43:35.584Z,46.20
2018-03-01T15:45:39.007Z,46.40
2018-03-01T15:47:41.676Z,46.30
2018-03-01T15:49:44.364Z,46.30
2018-03-01T15:51:47.035Z,46.30
2018-03-01T15:53:49.701Z,46.50
2018-03-01T15:55:52.376Z,46.90
2018-03-01T15:57:55.092Z,46.80
2018-03-01T15:59:57.903Z,47.00
2018-03-01T16:02:00.720Z,47.30
2018-03-01T16:04:04.305Z,46.90
2018-03-01T16:06:07.657Z,47.00
2018-03-01T16:08:10.384Z,47.60
2018-03-01T16:10:13.556Z,47.40
2018-03-01T16:12:16.522Z,47.10
2018-03-01T16:14:19.265Z,47.20
2018-03-01T16:16:23.216Z,47.70
2018-03-01T16:18:27.268Z,47.10
2018-03-01T16:20:30.372Z,47.10
2018-03-01T16:22:33.031Z,47.30
2018-03-01T16:24:35.796Z,47.30
2018-03-01T16:26:38.448Z,47.60
2018-03-01T16:28:41.936Z,47.40
2018-03-01T16:30:49.412Z,47.60
2018-03-01T16:32:52.094Z,47.60
2018-03-01T16:34:55.828Z,48.10
2018-03-01T16:36:58.561Z,47.80
2018-03-01T16:39:01.211Z,47.90
2018-03-01T16:41:03.949Z,47.70
2018-03-01T16:43:06.624Z,48.00
2018-03-01T16:45:09.481Z,48.10
2018-03-01T16:47:12.216Z,48.30
2018-03-01T16:49:14.948Z,48.30
2018-03-01T16:51:19.787Z,48.00
2018-03-01T16:53:22.694Z,48.00
2018-03-01T16:55:25.378Z,47.90
2018-03-01T16:57:28.145Z,48.00
2018-03-01T16:59:30.896Z,48.00
2018-03-01T17:01:34.767Z,48.30
2018-03-01T17:03:37.443Z,48.30
2018-03-01T17:05:40.140Z,48.30
2018-03-01T17:07:43.594Z,48.60
2018-03-01T17:09:46.256Z,48.60
2018-03-01T17:11:48.980Z,48.50
2018-03-01T17:13:52.432Z,49.20
2018-03-01T17:15:55.150Z,48.80
2018-03-01T17:17:57.851Z,48.90
2018-03-01T17:20:00.502Z,49.50
2018-03-01T17:22:03.950Z,49.30
2018-03-01T17:24:06.710Z,49.20
2018-03-01T17:26:09.357Z,49.10
2018-03-01T17:28:12.816Z,49.50
2018-03-01T17:30:15.513Z,49.40
2018-03-01T17:32:18.200Z,49.50
2018-03-01T17:34:21.630Z,49.60
2018-03-01T17:36:24.315Z,49.50
2018-03-01T17:38:27.057Z,49.60
2018-03-01T17:40:30.552Z,49.70
2018-03-01T17:42:34.019Z,49.80
2018-03-01T17:44:36.778Z,49.80
2018-03-01T17:46:39.489Z,49.80
2018-03-01T17:48:42.179Z,49.90
2018-03-01T17:50:46.662Z,50.40
2018-03-01T17:52:49.367Z,50.30
2018-03-01T17:54:53.034Z,50.30
2018-03-01T17:56:55.742Z,50.30
2018-03-01T17:58:59.266Z,50.40
2018-03-01T18:01:02.048Z,50.30
2018-03-01T18:03:04.721Z,50.70
2018-03-01T18:05:07.396Z,50.60
2018-03-01T18:07:10.064Z,50.80
2018-03-01T18:09:12.801Z,50.70
2018-03-01T18:11:15.652Z,50.70
2018-03-01T18:13:18.508Z,50.70
2018-03-01T18:15:21.289Z,50.90
2018-03-01T18:17:23.983Z,50.90
2018-03-01T18:19:26.704Z,51.20
2018-03-01T18:21:29.381Z,51.00
2018-03-01T18:23:32.309Z,51.10
2018-03-01T18:25:35.149Z,51.00
2018-03-01T18:27:38.866Z,51.30
2018-03-01T18:29:42.312Z,51.20
2018-03-01T18:31:46.267Z,51.40
2018-03-01T18:33:56.965Z,51.40
2018-03-01T18:36:00.176Z,51.80
2018-03-01T18:38:04.298Z,51.80
2018-03-01T18:40:07.791Z,52.10
2018-03-01T18:42:12.134Z,52.00
2018-03-01T18:44:16.244Z,52.10
2018-03-01T18:46:19.726Z,52.30
2018-03-01T18:48:22.466Z,52.20
2018-03-01T18:50:25.201Z,52.40
2018-03-01T18:52:28.629Z,52.50
2018-03-01T18:54:31.299Z,52.40
2018-03-01T18:56:34.001Z,52.90
2018-03-01T18:58:36.769Z,53.20
2018-03-01T19:00:39.632Z,53.00
2018-03-01T19:02:42.440Z,53.20
2018-03-01T19:04:45.284Z,52.90
2018-03-01T19:06:47.976Z,52.90
2018-03-01T19:08:50.630Z,53.20
2018-03-01T19:10:53.315Z,53.40
2018-03-01T19:12:56.204Z,53.50
2018-03-01T19:14:58.904Z,53.50
2018-03-01T19:17:01.581Z,53.50
2018-03-01T19:19:04.247Z,53.60
2018-03-01T19:21:07.115Z,53.60
2018-03-01T19:23:09.844Z,53.60
2018-03-01T19:25:12.542Z,53.80
2018-03-01T19:27:15.222Z,54.00
2018-03-01T19:29:17.896Z,54.00
2018-03-01T19:31:20.558Z,54.10
2018-03-01T19:33:24.026Z,54.40
2018-03-01T19:35:26.671Z,54.40
2018-03-01T19:37:29.355Z,54.20
2018-03-01T19:39:32.019Z,54.50
2018-03-01T19:41:34.794Z,54.60
2018-03-01T19:43:37.715Z,54.60
2018-03-01T19:45:40.357Z,54.50
2018-03-01T19:47:43.048Z,54.60
2018-03-01T19:49:45.729Z,54.50
2018-03-01T19:51:48.399Z,54.60
2018-03-01T19:53:51.085Z,54.90
2018-03-01T19:55:53.734Z,54.60
2018-03-01T19:57:56.955Z,54.80
2018-03-01T19:59:59.628Z,55.20
2018-03-01T20:02:02.648Z,55.30
2018-03-01T20:04:06.090Z,55.80
2018-03-01T20:06:08.884Z,55.30
2018-03-01T20:08:11.592Z,55.30
2018-03-01T20:10:15.040Z,55.50
2018-03-01T20:12:17.862Z,55.50
2018-03-01T20:14:21.390Z,56.10
2018-03-01T20:16:24.056Z,55.60
2018-03-01T20:18:26.735Z,55.80
2018-03-01T20:20:29.527Z,56.00
2018-03-01T20:22:32.204Z,56.10
2018-03-01T20:24:34.931Z,56.20
2018-03-01T20:26:37.691Z,56.30
2018-03-01T20:28:40.353Z,56.20
2018-03-01T20:30:43.071Z,56.50
2018-03-01T20:32:46.507Z,56.50
2018-03-01T20:34:49.291Z,56.50
2018-03-01T20:36:51.943Z,56.60
2018-03-01T20:38:54.763Z,56.60
2018-03-01T20:40:57.497Z,56.70
2018-03-01T20:43:00.141Z,56.90
2018-03-01T20:45:02.825Z,56.80
2018-03-01T20:47:05.508Z,56.90
2018-03-01T20:49:09.039Z,57.00
2018-03-01T20:51:11.792Z,57.00
2018-03-01T20:53:15.264Z,57.20
2018-03-01T20:55:19.038Z,57.20
2018-03-01T20:57:21.758Z,57.30
2018-03-01T20:59:25.196Z,57.40
2018-03-01T21:01:27.887Z,57.40
2018-03-01T21:03:30.603Z,57.40
2018-03-01T21:05:34.065Z,57.60
2018-03-01T21:07:36.857Z,57.60
2018-03-01T21:09:39.568Z,57.40
2018-03-01T21:11:42.256Z,57.60
2018-03-01T21:13:45.044Z,57.70
2018-03-01T21:15:47.739Z,58.00
2018-03-01T21:17:50.407Z,58.00
2018-03-01T21:19:53.052Z,58.10
2018-03-01T21:21:55.731Z,58.10
2018-03-01T21:23:58.563Z,58.10
2018-03-01T21:26:01.271Z,58.10
2018-03-01T21:28:04.076Z,58.10
2018-03-01T21:30:07.113Z,58.20
2018-03-01T21:32:10.614Z,58.40
2018-03-01T21:34:13.724Z,58.50
2018-03-01T21:36:16.404Z,58.50
2018-03-01T21:38:20.799Z,59.00
2018-03-01T21:40:23.654Z,58.90
2018-03-01T21:42:33.181Z,58.90
2018-03-01T21:44:36.046Z,58.90
2018-03-01T21:46:38.804Z,58.90
2018-03-01T21:48:41.794Z,59.10
2018-03-01T21:50:44.651Z,59.10
2018-03-01T21:52:48.428Z,59.10
2018-03-01T21:54:51.091Z,59.10
2018-03-01T21:56:54.510Z,59.40
2018-03-01T21:58:57.281Z,59.50
2018-03-01T22:00:59.931Z,59.30
2018-03-01T22:03:02.621Z,59.30
2018-03-01T22:05:05.303Z,59.50
2018-03-01T22:07:07.972Z,59.70
2018-03-01T22:09:10.655Z,59.80
2018-03-01T22:11:13.313Z,59.70
2018-03-01T22:13:16.037Z,59.60
2018-03-01T22:15:19.477Z,60.00
2018-03-01T22:17:22.343Z,60.00
2018-03-01T22:19:25.023Z,59.90
2018-03-01T22:21:27.675Z,60.40
2018-03-01T22:23:30.347Z,60.40
2018-03-01T22:25:33.012Z,60.50
2018-03-01T22:27:36.448Z,60.30
2018-03-01T22:29:39.144Z,60.30
2018-03-01T22:31:41.813Z,60.40
2018-03-01T22:33:44.508Z,60.50
2018-03-01T22:35:47.155Z,60.50
2018-03-01T22:37:49.846Z,60.50
2018-03-01T22:39:52.520Z,60.80
2018-03-01T22:41:55.188Z,60.60
2018-03-01T22:43:58.003Z,60.80
2018-03-01T22:46:00.664Z,61.10
2018-03-01T22:48:03.325Z,61.00
2018-03-01T22:50:06.772Z,61.10
2018-03-01T22:52:10.204Z,61.50
2018-03-01T22:54:12.861Z,61.40
2018-03-01T22:56:15.563Z,61.60
2018-03-01T22:58:18.266Z,61.40
2018-03-01T23:00:33.670Z,62.00
2018-03-01T23:02:37.160Z,61.70
2018-03-01T23:04:39.914Z,61.60
2018-03-01T23:06:42.585Z,62.60
2018-03-01T23:08:45.256Z,62.30
2018-03-01T23:10:47.952Z,62.00
2018-03-01T23:12:51.387Z,62.60
2018-03-01T23:14:54.064Z,62.40
2018-03-01T23:16:56.751Z,62.50
2018-03-01T23:18:59.465Z,62.60
2018-03-01T23:21:02.184Z,62.40
2018-03-01T23:23:04.885Z,62.80
2018-03-01T23:25:07.550Z,62.80
2018-03-01T23:27:10.256Z,62.80
2018-03-01T23:29:12.905Z,62.80
2018-03-01T23:31:15.613Z,63.20
2018-03-01T23:33:18.348Z,63.00
2018-03-01T23:35:20.997Z,63.20
2018-03-01T23:37:24.454Z,63.60
2018-03-01T23:39:27.138Z,63.50
2018-03-01T23:41:29.855Z,63.60
2018-03-01T23:43:33.270Z,63.80
2018-03-01T23:45:35.934Z,63.80
2018-03-01T23:47:38.601Z,63.90
2018-03-01T23:49:41.257Z,64.30
2018-03-01T23:51:44.717Z,64.50
2018-03-01T23:53:47.394Z,64.40
2018-03-01T23:55:50.433Z,64.30
2018-03-01T23:57:53.133Z,64.40
2018-03-01T23:59:55.807Z,64.60
